Time;durP1;ratioP1;P1;durP2;ratioP2;P2;SDS_P1;SDS_P2;PMS_P1;PMS_P2;Temp;Humidity;BMP_temperature;BMP_pressure;BME280_temperature;BME280_humidity;BME280_pressure;Samples;Min_cycle;Max_cycle;Signal;HPM_P1;HPM_P2
2022/03/12 00:01:14;;;;;;;18.37;15.00;;;7.70;32.80;;;;;;5099267;28;20526;-44
2022/03/12 00:03:40;;;;;;;17.00;15.20;;;7.70;32.90;;;;;;5101056;28;20757;-45
2022/03/12 00:06:09;;;;;;;28.13;16.80;;;7.70;32.90;;;;;;5100028;28;20476;-45
2022/03/12 00:08:42;;;;;;;19.43;16.13;;;7.80;33.00;;;;;;5099636;28;20167;-45
2022/03/12 00:11:10;;;;;;;18.37;16.20;;;7.80;33.00;;;;;;5116312;28;20459;-45
2022/03/12 00:13:36;;;;;;;21.43;17.07;;;7.80;33.00;;;;;;5116729;28;20702;-45
2022/03/12 00:16:04;;;;;;;17.87;15.83;;;7.70;32.90;;;;;;5114517;28;20438;-45
2022/03/12 00:18:30;;;;;;;17.27;15.43;;;7.80;33.10;;;;;;5116041;28;20414;-44
2022/03/12 00:21:01;;;;;;;16.53;14.83;;;7.80;33.10;;;;;;5115388;28;20474;-45
2022/03/12 00:23:29;;;;;;;18.50;15.70;;;7.80;33.20;;;;;;5117051;28;20741;-45
2022/03/12 00:25:55;;;;;;;20.00;16.83;;;7.80;33.30;;;;;;5115721;28;20434;-44
2022/03/12 00:28:21;;;;;;;16.93;15.23;;;7.80;33.40;;;;;;5118463;28;20409;-45
2022/03/12 00:30:50;;;;;;;18.53;16.17;;;7.80;33.50;;;;;;5116021;28;20222;-45
2022/03/12 00:33:20;;;;;;;19.40;16.00;;;7.80;33.60;;;;;;5118438;28;20410;-45
2022/03/12 00:35:48;;;;;;;20.00;15.03;;;7.80;33.70;;;;;;5115806;28;20426;-45
2022/03/12 00:38:19;;;;;;;20.07;18.07;;;7.80;33.80;;;;;;5115743;28;20407;-45
2022/03/12 00:40:44;;;;;;;20.20;16.43;;;7.70;33.80;;;;;;5080480;28;20923;-44
2022/03/12 00:43:11;;;;;;;18.53;16.40;;;7.80;34.00;;;;;;5117532;28;20419;-45
2022/03/12 00:45:37;;;;;;;22.20;16.20;;;7.70;33.90;;;;;;5098207;28;20194;-45
2022/03/12 00:48:04;;;;;;;17.63;15.60;;;7.80;33.90;;;;;;5117216;28;20914;-45
2022/03/12 00:50:30;;;;;;;17.97;16.20;;;7.80;33.90;;;;;;5097587;28;20436;-45
2022/03/12 00:52:56;;;;;;;18.90;16.33;;;7.80;33.90;;;;;;5117550;28;20736;-45
2022/03/12 00:55:22;;;;;;;18.13;16.23;;;7.70;34.00;;;;;;5116738;28;20232;-44
2022/03/12 00:57:48;;;;;;;17.90;16.00;;;7.70;34.10;;;;;;5116538;28;20510;-46
2022/03/12 01:00:17;;;;;;;20.93;16.80;;;7.70;34.20;;;;;;5115051;28;20501;-45
2022/03/12 01:02:43;;;;;;;17.50;15.37;;;7.70;34.20;;;;;;5116571;28;20410;-45
2022/03/12 01:05:10;;;;;;;18.27;15.47;;;7.60;34.20;;;;;;5115600;28;20411;-45
2022/03/12 01:07:35;;;;;;;16.77;15.10;;;7.60;34.20;;;;;;5117339;28;20263;-45
2022/03/12 01:10:01;;;;;;;17.30;15.50;;;7.60;34.20;;;;;;5115894;28;20505;-45
2022/03/12 01:12:27;;;;;;;20.27;16.70;;;7.60;34.30;;;;;;5118226;28;20164;-45
2022/03/12 01:14:53;;;;;;;16.20;14.50;;;7.60;34.30;;;;;;5115188;28;20693;-45
2022/03/12 01:17:19;;;;;;;19.00;15.43;;;7.60;34.30;;;;;;5116581;28;20421;-45
2022/03/12 01:19:45;;;;;;;18.20;15.40;;;7.60;34.40;;;;;;5098827;28;20191;-45
2022/03/12 01:22:20;;;;;;;17.07;14.90;;;7.60;34.40;;;;;;5116768;28;20468;-45
2022/03/12 01:24:49;;;;;;;17.93;15.57;;;7.60;34.30;;;;;;5117033;28;20482;-45
2022/03/12 01:27:15;;;;;;;17.13;14.90;;;7.60;34.20;;;;;;5115532;28;20520;-45
2022/03/12 01:29:45;;;;;;;15.83;14.10;;;7.60;34.10;;;;;;5116927;28;20557;-45
2022/03/12 01:32:10;;;;;;;18.20;16.17;;;7.60;34.10;;;;;;5097821;28;20430;-45
2022/03/12 01:34:36;;;;;;;18.43;14.60;;;7.60;34.00;;;;;;5117288;28;20460;-45
2022/03/12 01:37:02;;;;;;;17.23;15.40;;;7.60;34.00;;;;;;5115078;28;20243;-45
2022/03/12 01:39:28;;;;;;;19.43;15.33;;;7.60;33.90;;;;;;5115976;28;20290;-45
2022/03/12 01:41:54;;;;;;;17.03;15.33;;;7.60;34.00;;;;;;5114680;28;20465;-45
2022/03/12 01:44:20;;;;;;;18.77;16.73;;;7.60;34.00;;;;;;5116658;28;20730;-45
2022/03/12 01:46:48;;;;;;;19.30;15.83;;;7.70;34.00;;;;;;5115598;28;20410;-45
2022/03/12 01:49:19;;;;;;;17.77;14.53;;;7.70;34.50;;;;;;5115985;28;20417;-45
2022/03/12 01:51:49;;;;;;;16.03;14.37;;;7.70;34.00;;;;;;5098826;28;20847;-45
2022/03/12 01:54:23;;;;;;;18.30;16.17;;;7.70;33.90;;;;;;5115048;28;20470;-43
2022/03/12 01:56:50;;;;;;;19.50;17.30;;;7.70;33.90;;;;;;5116242;28;20852;-45
2022/03/12 01:59:16;;;;;;;18.40;16.43;;;7.70;33.80;;;;;;5117606;28;20429;-45
2022/03/12 02:01:42;;;;;;;19.57;14.93;;;7.60;33.80;;;;;;5117943;28;20453;-45
2022/03/12 02:04:08;;;;;;;18.10;15.50;;;7.60;33.90;;;;;;5115622;28;20422;-45
2022/03/12 02:06:34;;;;;;;18.67;16.67;;;7.60;33.90;;;;;;5117684;28;20421;-45
2022/03/12 02:09:01;;;;;;;16.93;15.13;;;7.60;33.80;;;;;;5120094;28;20267;-45
2022/03/12 02:11:27;;;;;;;20.80;17.60;;;7.60;33.80;;;;;;5120722;28;20423;-45
2022/03/12 02:14:07;;;;;;;18.80;16.60;;;7.60;33.80;;;;;;5084295;28;20465;-45
2022/03/12 02:16:33;;;;;;;18.43;16.53;;;7.60;33.80;;;;;;5121131;28;20425;-45
2022/03/12 02:18:59;;;;;;;18.20;16.30;;;7.60;33.90;;;;;;5119489;28;20430;-45
2022/03/12 02:22:11;;;;;;;20.70;16.10;;;7.60;33.90;;;;;;5121682;28;20466;-45
2022/03/12 02:24:38;;;;;;;16.80;15.07;;;7.70;34.00;;;;;;5120143;28;20203;-45
2022/03/12 02:27:05;;;;;;;18.83;15.70;;;7.70;34.00;;;;;;5120323;28;20487;-45
2022/03/12 02:29:32;;;;;;;18.40;16.10;;;7.70;34.00;;;;;;5119380;28;20429;-45
2022/03/12 02:32:01;;;;;;;18.30;15.70;;;7.70;34.00;;;;;;5120837;28;20418;-45
2022/03/12 02:34:39;;;;;;;19.60;17.03;;;7.70;34.00;;;;;;5119638;28;20421;-45
2022/03/12 02:37:05;;;;;;;17.27;14.87;;;7.70;34.10;;;;;;5120926;28;20482;-45
2022/03/12 02:39:34;;;;;;;18.70;16.83;;;7.60;34.50;;;;;;5118426;28;20418;-45
2022/03/12 02:42:00;;;;;;;18.57;14.70;;;7.60;34.20;;;;;;5119427;28;20469;-45
2022/03/12 02:44:28;;;;;;;16.00;13.90;;;7.60;34.30;;;;;;5117679;28;20440;-45
2022/03/12 02:47:17;;;;;;;19.10;15.37;;;7.60;34.30;;;;;;5120075;28;20436;-45
2022/03/12 02:49:58;;;;;;;18.00;16.07;;;7.60;34.30;;;;;;5117908;28;20430;-45
2022/03/12 02:52:27;;;;;;;19.03;17.13;;;7.60;34.50;;;;;;5118992;28;20449;-45
2022/03/12 02:54:54;;;;;;;19.13;16.13;;;7.60;34.60;;;;;;5117742;28;20509;-44
2022/03/12 02:57:26;;;;;;;19.23;16.60;;;7.60;34.70;;;;;;5120111;28;20410;-45
2022/03/12 02:59:53;;;;;;;18.07;15.87;;;7.50;34.80;;;;;;5118625;28;20426;-45
2022/03/12 03:02:39;;;;;;;17.60;15.33;;;7.50;34.90;;;;;;5119920;28;20475;-45
2022/03/12 03:05:18;;;;;;;18.43;15.80;;;7.50;35.00;;;;;;5119166;28;20493;-45
2022/03/12 03:07:45;;;;;;;16.97;15.17;;;7.50;35.10;;;;;;5120661;28;20501;-45
2022/03/12 03:10:29;;;;;;;17.93;15.03;;;7.50;35.10;;;;;;5120372;28;20677;-45
2022/03/12 03:12:56;;;;;;;16.93;15.17;;;7.50;35.10;;;;;;5119071;28;20414;-45
2022/03/12 03:15:22;;;;;;;20.07;16.23;;;7.50;35.10;;;;;;5120245;28;20714;-45
2022/03/12 03:17:47;;;;;;;19.60;14.93;;;7.50;35.10;;;;;;5118451;28;20422;-45
2022/03/12 03:20:14;;;;;;;17.90;15.17;;;7.50;35.10;;;;;;5118740;28;20195;-45
2022/03/12 03:22:40;;;;;;;17.63;15.83;;;7.40;35.00;;;;;;5120037;28;20457;-45
2022/03/12 03:25:05;;;;;;;18.83;16.80;;;7.40;35.00;;;;;;5134886;27;20440;-45
2022/03/12 03:27:31;;;;;;;18.73;15.60;;;7.40;35.00;;;;;;5143058;27;20541;-45
2022/03/12 03:29:57;;;;;;;18.43;14.63;;;7.40;35.00;;;;;;5159806;27;20179;-45
2022/03/12 03:32:23;;;;;;;16.57;14.77;;;7.40;35.10;;;;;;5161400;27;20575;-45
2022/03/12 03:34:48;;;;;;;19.10;16.47;;;7.40;35.00;;;;;;5159503;27;20435;-45
2022/03/12 03:37:15;;;;;;;17.17;15.37;;;7.40;35.00;;;;;;5161506;27;20228;-44
2022/03/12 03:39:41;;;;;;;16.30;14.30;;;7.40;35.00;;;;;;5140726;27;20218;-45
2022/03/12 03:42:07;;;;;;;20.80;16.93;;;7.40;35.00;;;;;;5160996;27;20533;-45
2022/03/12 03:44:33;;;;;;;18.17;14.70;;;7.30;35.00;;;;;;5159947;27;20178;-45
2022/03/12 03:46:58;;;;;;;18.77;16.77;;;7.30;35.00;;;;;;5160724;27;20540;-45
2022/03/12 03:49:25;;;;;;;17.33;15.53;;;7.30;35.10;;;;;;5158347;27;20183;-45
2022/03/12 03:51:51;;;;;;;18.97;16.60;;;7.30;35.10;;;;;;5159010;27;20231;-45
2022/03/12 03:54:17;;;;;;;19.23;15.40;;;7.30;35.20;;;;;;5158259;27;20483;-45
2022/03/12 03:56:43;;;;;;;20.23;16.27;;;7.20;35.30;;;;;;5160017;27;20430;-45
2022/03/12 03:59:09;;;;;;;18.17;15.00;;;7.20;35.40;;;;;;5159801;27;20424;-45
2022/03/12 04:01:41;;;;;;;20.13;15.70;;;7.20;35.60;;;;;;5160395;27;20202;-45
2022/03/12 04:04:12;;;;;;;19.30;16.03;;;7.10;35.60;;;;;;5157457;27;20481;-45
2022/03/12 04:06:39;;;;;;;19.33;15.60;;;7.10;35.80;;;;;;5159052;27;20511;-45
2022/03/12 04:09:05;;;;;;;18.23;16.33;;;7.10;35.90;;;;;;5157204;27;20428;-45
2022/03/12 04:11:33;;;;;;;16.70;14.53;;;7.10;36.00;;;;;;5159403;27;20412;-45
2022/03/12 04:13:58;;;;;;;18.00;15.57;;;7.00;36.00;;;;;;5157317;27;20427;-45
2022/03/12 04:16:24;;;;;;;16.77;14.30;;;7.00;36.10;;;;;;5159619;27;20412;-45
2022/03/12 04:18:50;;;;;;;17.90;14.50;;;6.90;36.20;;;;;;5158522;27;20189;-45
2022/03/12 04:21:17;;;;;;;19.30;15.70;;;6.90;36.30;;;;;;5159680;27;20270;-44
2022/03/12 04:23:44;;;;;;;18.40;15.93;;;6.90;36.40;;;;;;5157718;27;20202;-45
2022/03/12 04:26:11;;;;;;;17.93;15.90;;;6.80;36.40;;;;;;5160032;27;20465;-45
2022/03/12 04:28:38;;;;;;;20.50;17.13;;;6.80;36.60;;;;;;5140533;27;20531;-45
2022/03/12 04:31:04;;;;;;;17.70;15.50;;;6.80;36.60;;;;;;5158238;27;20412;-45
2022/03/12 04:33:32;;;;;;;18.63;16.67;;;6.80;36.70;;;;;;5156947;27;20511;-45
2022/03/12 04:35:59;;;;;;;18.93;16.00;;;6.80;36.60;;;;;;5140087;27;20492;-45
2022/03/12 04:38:25;;;;;;;21.43;16.50;;;6.80;36.50;;;;;;5156409;27;20733;-45
2022/03/12 04:40:53;;;;;;;18.70;16.70;;;6.80;36.50;;;;;;5158342;27;20495;-45
2022/03/12 04:43:19;;;;;;;18.00;16.03;;;6.80;36.60;;;;;;5156213;27;20431;-45
2022/03/12 04:45:46;;;;;;;19.20;16.40;;;6.80;36.60;;;;;;5159130;27;20697;-45
2022/03/12 04:48:17;;;;;;;18.47;16.50;;;6.80;36.60;;;;;;5158080;27;20606;-45
2022/03/12 04:50:42;;;;;;;19.70;17.20;;;6.80;36.60;;;;;;5159914;27;20416;-45
2022/03/12 04:53:08;;;;;;;19.00;16.90;;;6.80;36.60;;;;;;5157929;27;20420;-45
2022/03/12 04:55:36;;;;;;;17.50;15.17;;;6.80;36.60;;;;;;5159083;27;20432;-45
2022/03/12 04:58:02;;;;;;;17.13;14.53;;;6.80;36.70;;;;;;5139144;27;20415;-45
2022/03/12 05:00:30;;;;;;;21.27;16.60;;;6.80;36.70;;;;;;5157901;27;20465;-45
2022/03/12 05:03:04;;;;;;;17.57;14.83;;;6.80;36.80;;;;;;5138760;27;20496;-47
2022/03/12 05:05:30;;;;;;;18.07;15.27;;;6.80;36.90;;;;;;5124882;27;20400;-48
2022/03/12 05:07:58;;;;;;;21.07;16.30;;;6.90;37.00;;;;;;5158690;27;20436;-48
2022/03/12 05:10:27;;;;;;;20.50;16.60;;;6.90;37.00;;;;;;5159687;27;20404;-47
2022/03/12 05:12:58;;;;;;;19.87;16.60;;;7.00;37.10;;;;;;5141336;27;20849;-48
2022/03/12 05:15:24;;;;;;;17.90;16.00;;;7.00;37.00;;;;;;5159591;27;20685;-47
2022/03/12 05:17:51;;;;;;;19.43;16.70;;;7.00;37.00;;;;;;5158638;27;20422;-47
2022/03/12 05:20:23;;;;;;;19.47;16.03;;;7.00;36.90;;;;;;5160280;27;20462;-47
2022/03/12 05:22:49;;;;;;;21.30;16.50;;;7.10;36.90;;;;;;5158070;27;20409;-47
2022/03/12 05:25:18;;;;;;;19.57;17.00;;;7.00;36.70;;;;;;5141414;27;20416;-47
2022/03/12 05:27:47;;;;;;;18.80;15.57;;;7.10;36.70;;;;;;5158131;27;20430;-48
2022/03/12 05:30:13;;;;;;;17.67;15.37;;;7.20;36.70;;;;;;5157570;27;20419;-48
2022/03/12 05:32:39;;;;;;;18.97;16.83;;;7.10;36.70;;;;;;5157979;27;20400;-48
2022/03/12 05:35:06;;;;;;;20.90;15.83;;;7.20;36.70;;;;;;5138258;27;20178;-48
2022/03/12 05:37:32;;;;;;;19.53;15.67;;;7.20;36.70;;;;;;5139619;27;20174;-47
2022/03/12 05:39:58;;;;;;;19.77;17.63;;;7.20;36.80;;;;;;5155901;27;20416;-48
2022/03/12 05:42:24;;;;;;;24.13;16.80;;;7.20;36.80;;;;;;5139837;27;20414;-48
2022/03/12 05:44:51;;;;;;;19.67;17.10;;;7.20;36.80;;;;;;5159645;27;20162;-47
2022/03/12 05:47:18;;;;;;;18.93;16.90;;;7.10;36.80;;;;;;5161048;27;20162;-47
2022/03/12 05:49:44;;;;;;;22.50;18.00;;;7.20;37.10;;;;;;5160983;27;20408;-48
2022/03/12 05:52:10;;;;;;;19.70;17.60;;;7.20;37.30;;;;;;5160485;27;20416;-48
2022/03/12 05:54:36;;;;;;;20.80;16.97;;;7.10;37.40;;;;;;5139572;27;20250;-48
2022/03/12 05:57:02;;;;;;;20.20;15.80;;;7.10;37.60;;;;;;5140222;27;20943;-47
2022/03/12 05:59:29;;;;;;;19.33;17.23;;;7.10;37.70;;;;;;5140234;27;20991;-48
2022/03/12 06:01:55;;;;;;;24.40;15.90;;;7.00;38.10;;;;;;5139214;27;20479;-47
2022/03/12 06:04:27;;;;;;;18.67;16.67;;;7.10;37.80;;;;;;5141285;27;20900;-48
2022/03/12 06:06:56;;;;;;;19.07;17.07;;;7.00;37.70;;;;;;5140066;27;20444;-48
2022/03/12 06:09:22;;;;;;;18.57;16.63;;;7.10;37.80;;;;;;5131040;27;20428;-48
2022/03/12 06:11:53;;;;;;;19.00;15.97;;;7.10;37.80;;;;;;5119595;28;20434;-47
2022/03/12 06:14:21;;;;;;;19.83;17.83;;;7.10;37.80;;;;;;5121209;28;20431;-47
2022/03/12 06:16:48;;;;;;;18.80;16.33;;;7.10;37.80;;;;;;5122291;28;20444;-48
2022/03/12 06:19:21;;;;;;;17.97;15.97;;;7.20;37.90;;;;;;5121788;28;20437;-48
2022/03/12 06:21:48;;;;;;;17.97;16.17;;;7.20;37.90;;;;;;5120100;28;20480;-48
2022/03/12 06:24:14;;;;;;;17.23;15.37;;;7.20;38.00;;;;;;5120350;28;20673;-48
2022/03/12 06:26:43;;;;;;;18.47;16.57;;;7.30;38.10;;;;;;5120617;28;20816;-48
2022/03/12 06:29:09;;;;;;;19.60;17.60;;;7.30;38.10;;;;;;5120231;28;20406;-48
2022/03/12 06:31:36;;;;;;;20.00;16.60;;;7.30;38.10;;;;;;5119924;28;20857;-48
2022/03/12 06:34:03;;;;;;;19.50;16.67;;;7.40;38.20;;;;;;5122417;28;20452;-47
2022/03/12 06:36:30;;;;;;;18.43;16.53;;;7.40;38.20;;;;;;5118832;28;20414;-48
2022/03/12 06:38:57;;;;;;;19.10;16.50;;;7.50;38.20;;;;;;5119779;28;20742;-48
2022/03/12 06:41:23;;;;;;;17.10;15.40;;;7.60;38.10;;;;;;5118791;28;20473;-48
2022/03/12 06:43:50;;;;;;;18.93;16.43;;;7.70;38.10;;;;;;5119021;28;20418;-48
2022/03/12 06:46:16;;;;;;;19.57;16.40;;;7.80;38.00;;;;;;5117236;28;20521;-47
2022/03/12 06:48:42;;;;;;;17.80;15.90;;;8.00;37.90;;;;;;5119635;28;20518;-47
2022/03/12 06:51:13;;;;;;;22.30;16.33;;;8.10;37.80;;;;;;5118331;28;20438;-47
2022/03/12 06:53:39;;;;;;;23.90;17.33;;;8.30;37.70;;;;;;5124879;27;20453;-47
2022/03/12 06:56:06;;;;;;;19.43;16.77;;;8.40;37.40;;;;;;5139863;27;20437;-48
2022/03/12 06:58:32;;;;;;;18.37;16.20;;;8.60;37.30;;;;;;5141890;27;20507;-48
2022/03/12 07:00:58;;;;;;;19.13;16.57;;;8.80;37.30;;;;;;5139636;27;20577;-46
2022/03/12 07:03:24;;;;;;;18.23;15.80;;;8.90;37.30;;;;;;5142364;27;20546;-46
2022/03/12 07:05:51;;;;;;;19.03;17.13;;;9.10;37.00;;;;;;5141243;27;20694;-46
2022/03/12 07:08:19;;;;;;;17.93;16.00;;;9.30;36.40;;;;;;5142862;27;20165;-46
2022/03/12 07:10:46;;;;;;;18.00;15.40;;;9.50;36.00;;;;;;5141407;27;20535;-47
2022/03/12 07:13:11;;;;;;;20.07;18.07;;;9.70;35.40;;;;;;5142093;27;20421;-47
2022/03/12 07:15:37;;;;;;;19.40;17.00;;;9.90;34.90;;;;;;5140351;27;20505;-47
2022/03/12 07:18:04;;;;;;;19.97;17.70;;;10.10;33.80;;;;;;5142160;27;20501;-47
2022/03/12 07:20:29;;;;;;;21.07;17.90;;;10.30;33.50;;;;;;5139029;27;20472;-47
2022/03/12 07:22:55;;;;;;;21.03;18.50;;;10.40;33.10;;;;;;5142396;27;20405;-47
2022/03/12 07:25:21;;;;;;;18.43;16.10;;;10.60;32.70;;;;;;5138452;27;20432;-47
2022/03/12 07:27:46;;;;;;;19.40;17.40;;;10.70;32.40;;;;;;5138176;27;20583;-47
2022/03/12 07:30:14;;;;;;;20.10;16.80;;;10.90;32.20;;;;;;5136491;27;20455;-47
2022/03/12 07:32:42;;;;;;;22.20;19.37;;;11.10;32.10;;;;;;5138719;27;20171;-47
2022/03/12 07:35:08;;;;;;;18.27;16.47;;;11.40;32.00;;;;;;5138806;27;20400;-47
2022/03/12 07:37:34;;;;;;;18.30;16.53;;;11.60;31.90;;;;;;5139248;27;20436;-47
2022/03/12 07:40:00;;;;;;;18.93;16.93;;;11.80;31.60;;;;;;5140600;27;20406;-47
2022/03/12 07:42:25;;;;;;;19.87;17.87;;;12.00;31.40;;;;;;5139307;27;20421;-47
2022/03/12 07:44:51;;;;;;;20.07;18.10;;;12.30;31.10;;;;;;5140404;27;20169;-47
2022/03/12 07:47:16;;;;;;;19.93;16.47;;;12.50;30.80;;;;;;5139817;27;20176;-47
2022/03/12 07:49:42;;;;;;;19.30;17.30;;;12.70;30.50;;;;;;5140407;27;20599;-47
2022/03/12 07:52:08;;;;;;;19.00;17.17;;;13.10;30.40;;;;;;5139551;27;20191;-45
2022/03/12 07:54:34;;;;;;;21.70;17.63;;;13.40;30.20;;;;;;5140916;27;20270;-45
2022/03/12 07:57:01;;;;;;;19.07;17.27;;;13.60;29.90;;;;;;5139250;27;20425;-46
2022/03/12 07:59:29;;;;;;;20.80;18.60;;;13.80;29.70;;;;;;5140462;27;20542;-46
2022/03/12 08:01:55;;;;;;;19.57;17.47;;;14.00;29.40;;;;;;5137783;27;20473;-46
2022/03/12 08:04:21;;;;;;;18.77;16.97;;;14.20;29.30;;;;;;5138955;27;20398;-46
2022/03/12 08:06:48;;;;;;;19.00;17.00;;;14.40;29.10;;;;;;5136042;27;20519;-46
2022/03/12 08:09:14;;;;;;;20.03;17.90;;;14.60;28.90;;;;;;5138640;27;20164;-46
2022/03/12 08:11:39;;;;;;;20.00;18.00;;;14.80;28.80;;;;;;5137153;27;20432;-46
2022/03/12 08:14:14;;;;;;;21.37;19.17;;;15.00;28.50;;;;;;5120544;27;20171;-47
2022/03/12 08:16:40;;;;;;;19.23;17.40;;;15.20;28.30;;;;;;5134766;27;20175;-47
2022/03/12 08:19:07;;;;;;;21.77;18.67;;;15.50;28.30;;;;;;5131934;27;20470;-47
2022/03/12 08:21:34;;;;;;;19.93;17.93;;;15.80;28.60;;;;;;5125135;27;20593;-47
2022/03/12 08:24:02;;;;;;;19.60;17.70;;;16.00;28.00;;;;;;5139738;27;20405;-47
2022/03/12 08:26:30;;;;;;;20.50;18.30;;;16.30;27.80;;;;;;5117051;28;20441;-47
2022/03/12 08:28:56;;;;;;;21.37;19.17;;;16.60;27.70;;;;;;5116590;28;20418;-47
2022/03/12 08:31:22;;;;;;;21.07;18.97;;;16.90;27.50;;;;;;5117846;28;20568;-47
2022/03/12 08:33:48;;;;;;;21.80;19.67;;;17.20;27.80;;;;;;5114161;28;20758;-47
2022/03/12 08:36:15;;;;;;;20.80;18.80;;;17.40;27.20;;;;;;5115524;28;20509;-47
2022/03/12 08:38:40;;;;;;;19.67;17.53;;;17.60;27.20;;;;;;5114057;28;20185;-47
2022/03/12 08:41:07;;;;;;;20.70;18.70;;;17.90;27.20;;;;;;5114641;28;20453;-46
2022/03/12 08:43:35;;;;;;;20.27;17.30;;;18.20;27.10;;;;;;5114597;28;20186;-47
2022/03/12 08:46:02;;;;;;;21.50;19.30;;;18.40;26.90;;;;;;5116392;28;20402;-47
2022/03/12 08:48:28;;;;;;;22.97;20.60;;;18.60;26.70;;;;;;5111129;28;20783;-46
2022/03/12 08:50:54;;;;;;;23.13;20.80;;;18.90;26.60;;;;;;5113924;28;20443;-47
2022/03/12 08:53:21;;;;;;;22.57;19.63;;;19.20;26.40;;;;;;5113062;28;20187;-46
2022/03/12 08:55:47;;;;;;;21.43;19.23;;;19.60;26.40;;;;;;5116307;28;20423;-47
2022/03/12 08:58:13;;;;;;;21.20;19.17;;;20.00;26.30;;;;;;5116047;28;20420;-46
2022/03/12 09:00:39;;;;;;;21.10;19.17;;;20.30;26.00;;;;;;5117171;28;20461;-46
2022/03/12 09:03:05;;;;;;;20.20;18.30;;;20.80;25.90;;;;;;5098786;28;20197;-46
2022/03/12 09:05:31;;;;;;;21.13;19.13;;;21.20;25.80;;;;;;5118117;28;20173;-46
2022/03/12 09:07:57;;;;;;;20.73;18.73;;;21.50;25.80;;;;;;5096801;28;20417;-45
2022/03/12 09:10:24;;;;;;;22.40;20.30;;;21.70;25.20;;;;;;5098998;28;20158;-47
2022/03/12 09:12:50;;;;;;;20.67;18.77;;;21.90;25.10;;;;;;5118119;28;20408;-46
2022/03/12 09:15:21;;;;;;;20.77;18.70;;;22.20;25.00;;;;;;5116018;28;20433;-46
2022/03/12 09:17:46;;;;;;;22.93;20.77;;;22.40;24.80;;;;;;5116872;28;20585;-46
2022/03/12 09:20:13;;;;;;;20.30;18.40;;;22.50;24.60;;;;;;5114966;28;20436;-46
2022/03/12 09:22:39;;;;;;;22.33;20.17;;;22.70;24.60;;;;;;5116059;28;20360;-47
2022/03/12 09:25:09;;;;;;;21.53;19.43;;;22.80;24.40;;;;;;5114297;28;20446;-47
2022/03/12 09:27:35;;;;;;;20.07;18.00;;;23.00;24.40;;;;;;5098072;28;20490;-47
2022/03/12 09:30:02;;;;;;;19.63;17.87;;;23.30;24.40;;;;;;5096278;28;20466;-46
2022/03/12 09:32:28;;;;;;;20.37;18.47;;;23.70;24.30;;;;;;5116684;28;20478;-47
2022/03/12 09:34:53;;;;;;;20.40;18.60;;;24.20;24.60;;;;;;5115148;28;20455;-47
2022/03/12 09:37:19;;;;;;;20.47;18.57;;;24.70;24.10;;;;;;5117618;28;20173;-47
2022/03/12 09:39:45;;;;;;;20.40;18.60;;;25.00;23.90;;;;;;5116223;28;20219;-47
2022/03/12 09:42:11;;;;;;;19.93;18.13;;;25.40;23.80;;;;;;5116504;28;20192;-47
2022/03/12 09:44:37;;;;;;;19.50;17.70;;;25.90;23.70;;;;;;5115487;28;20428;-48
2022/03/12 09:47:03;;;;;;;19.07;17.47;;;26.30;23.70;;;;;;5114802;28;20439;-47
2022/03/12 09:49:28;;;;;;;20.83;18.53;;;26.70;23.40;;;;;;5113124;28;20449;-47
2022/03/12 09:51:57;;;;;;;20.43;18.53;;;26.80;23.20;;;;;;5116066;28;20420;-47
2022/03/12 09:54:23;;;;;;;18.70;17.00;;;27.00;23.30;;;;;;5114230;28;20588;-47
2022/03/12 09:56:48;;;;;;;18.77;16.93;;;27.30;23.40;;;;;;5114379;28;20566;-47
2022/03/12 09:59:14;;;;;;;18.83;17.03;;;27.70;23.40;;;;;;5096753;28;20194;-47
2022/03/12 10:01:39;;;;;;;18.67;16.97;;;28.00;23.20;;;;;;5114859;28;20210;-47
2022/03/12 10:04:05;;;;;;;19.63;17.93;;;28.30;23.20;;;;;;5114051;28;20172;-47
2022/03/12 10:06:31;;;;;;;17.57;16.07;;;28.90;23.10;;;;;;5114913;28;20626;-47
2022/03/12 10:08:57;;;;;;;19.07;17.40;;;29.10;22.80;;;;;;5113229;28;20505;-47
2022/03/12 10:11:23;;;;;;;17.33;15.93;;;29.50;22.80;;;;;;5114465;28;20219;-47
2022/03/12 10:13:49;;;;;;;17.27;15.77;;;29.70;22.90;;;;;;5096387;28;20425;-47
2022/03/12 10:16:17;;;;;;;19.13;17.43;;;30.00;22.90;;;;;;5115139;28;20413;-47
2022/03/12 10:18:42;;;;;;;17.47;15.87;;;30.30;22.80;;;;;;5116568;28;20436;-47
2022/03/12 10:21:08;;;;;;;17.73;16.27;;;30.60;22.60;;;;;;5115023;28;20440;-47
2022/03/12 10:23:35;;;;;;;16.07;14.70;;;30.70;22.60;;;;;;5114749;28;20728;-47
2022/03/12 10:26:01;;;;;;;18.00;16.40;;;30.90;22.60;;;;;;5115743;28;20262;-46
2022/03/12 10:28:29;;;;;;;17.13;15.63;;;31.10;22.60;;;;;;5116999;28;20487;-47
2022/03/12 10:30:55;;;;;;;17.30;15.70;;;31.20;22.50;;;;;;5117823;28;20810;-47
2022/03/12 10:33:22;;;;;;;18.20;16.60;;;31.50;22.40;;;;;;5119530;28;20488;-47
2022/03/12 10:35:48;;;;;;;18.27;16.53;;;31.80;22.30;;;;;;5117815;28;20208;-47
2022/03/12 10:38:14;;;;;;;17.53;15.87;;;32.00;22.00;;;;;;5121029;28;20754;-47
2022/03/12 10:40:40;;;;;;;19.13;17.47;;;32.40;21.90;;;;;;5118575;28;20477;-47
2022/03/12 10:43:13;;;;;;;18.00;16.40;;;32.60;21.90;;;;;;5118112;28;20174;-47
2022/03/12 10:45:41;;;;;;;18.73;17.03;;;32.60;21.80;;;;;;5097776;28;20753;-47
2022/03/12 10:48:09;;;;;;;18.77;17.07;;;32.80;21.50;;;;;;5115339;28;20485;-47
2022/03/12 10:50:44;;;;;;;19.80;18.10;;;32.90;21.30;;;;;;5116519;28;20551;-48
2022/03/12 10:53:10;;;;;;;20.57;18.87;;;33.00;21.00;;;;;;5118123;28;20439;-45
2022/03/12 10:55:40;;;;;;;20.07;18.47;;;32.50;20.80;;;;;;5099077;28;20411;-46
2022/03/12 10:58:15;;;;;;;20.40;18.60;;;32.40;20.90;;;;;;5132435;27;20394;-47
2022/03/12 11:00:45;;;;;;;14.50;13.30;;;32.60;21.00;;;;;;5138887;27;20578;-43
2022/03/12 11:03:14;;;;;;;15.00;13.73;;;32.30;22.50;;;;;;5138795;27;20453;-41
2022/03/12 11:05:43;;;;;;;14.37;13.10;;;32.20;22.60;;;;;;5119643;27;20398;-42
2022/03/12 11:08:20;;;;;;;11.87;10.43;;;32.10;23.40;;;;;;5138712;27;20777;-43
2022/03/12 11:10:58;;;;;;;10.30;9.50;;;32.00;24.00;;;;;;5137031;27;20389;-42
2022/03/12 11:13:47;;;;;;;11.10;10.20;;;32.40;24.50;;;;;;5137220;27;20446;-42
2022/03/12 11:16:21;;;;;;;12.20;11.10;;;32.70;24.20;;;;;;5138546;27;20872;-42
2022/03/12 11:18:53;;;;;;;12.57;11.57;;;32.50;23.70;;;;;;5134818;27;20418;-39
2022/03/12 11:21:43;;;;;;;12.00;10.87;;;32.50;23.70;;;;;;5119063;28;20457;-41
2022/03/12 11:24:22;;;;;;;15.53;13.93;;;32.60;24.10;;;;;;5101199;28;20424;-42
2022/03/12 11:27:01;;;;;;;13.10;11.90;;;32.60;23.20;;;;;;5116156;28;20805;-41
2022/03/12 11:29:29;;;;;;;13.23;11.83;;;32.50;23.30;;;;;;5120409;28;20420;-40
2022/03/12 11:32:06;;;;;;;11.17;10.17;;;32.40;23.40;;;;;;5118507;28;20839;-42
2022/03/12 11:34:36;;;;;;;15.03;10.97;;;32.60;24.10;;;;;;5116571;28;20472;-41
2022/03/12 11:37:06;;;;;;;10.67;9.80;;;32.80;24.10;;;;;;5115147;28;20407;-41
2022/03/12 11:39:46;;;;;;;11.50;10.60;;;33.10;24.20;;;;;;5116561;28;20816;-40
2022/03/12 11:42:18;;;;;;;12.23;9.80;;;33.30;24.10;;;;;;5117827;28;20533;-40
2022/03/12 11:44:50;;;;;;;11.43;10.53;;;33.70;24.10;;;;;;5117496;28;20764;-40
2022/03/12 11:47:40;;;;;;;9.87;9.07;;;33.60;23.80;;;;;;5119244;28;20402;-41
2022/03/12 11:50:12;;;;;;;11.83;10.83;;;33.80;23.90;;;;;;5116992;28;20469;-43
2022/03/12 11:52:37;;;;;;;10.53;9.63;;;33.90;23.30;;;;;;5119834;28;20413;-41
2022/03/12 11:55:05;;;;;;;13.10;10.43;;;34.20;23.70;;;;;;5116324;28;20542;-41
2022/03/12 11:57:34;;;;;;;12.00;9.63;;;34.30;23.70;;;;;;5118357;28;20171;-42
2022/03/12 12:00:05;;;;;;;9.53;8.67;;;34.60;23.60;;;;;;5118868;28;20417;-42
2022/03/12 12:02:35;;;;;;;11.53;10.17;;;34.60;23.60;;;;;;5117794;28;20432;-48
2022/03/12 12:05:13;;;;;;;11.33;10.10;;;33.90;23.00;;;;;;5118989;28;20376;-42
2022/03/12 12:07:43;;;;;;;9.80;8.93;;;33.70;23.70;;;;;;5117985;27;20402;-42
2022/03/12 12:10:14;;;;;;;9.87;9.07;;;33.60;23.80;;;;;;5121199;27;20421;-42
2022/03/12 12:12:45;;;;;;;10.80;9.90;;;33.30;23.90;;;;;;5114484;28;20438;-44
2022/03/12 12:15:19;;;;;;;10.87;9.90;;;33.40;24.20;;;;;;5116600;28;20411;-42
2022/03/12 12:17:46;;;;;;;11.40;10.30;;;33.70;23.90;;;;;;5123311;27;20438;-44
2022/03/12 12:20:19;;;;;;;11.43;10.50;;;33.50;23.40;;;;;;5139091;27;20415;-41
2022/03/12 12:22:45;;;;;;;10.50;9.67;;;33.10;23.60;;;;;;5139060;27;20424;-41
2022/03/12 12:25:11;;;;;;;10.47;9.57;;;33.40;24.00;;;;;;5139615;27;20666;-44
2022/03/12 12:27:50;;;;;;;9.87;9.17;;;33.80;24.50;;;;;;5118914;27;20453;-42
2022/03/12 12:30:42;;;;;;;8.60;7.90;;;34.20;23.80;;;;;;5128437;27;20396;-40
2022/03/12 12:33:17;;;;;;;8.80;8.07;;;34.50;23.70;;;;;;5117305;28;20391;-41
2022/03/12 12:35:44;;;;;;;10.40;9.60;;;34.90;23.80;;;;;;5118409;28;20708;-42
2022/03/12 12:38:11;;;;;;;9.60;8.90;;;35.10;23.40;;;;;;5098861;28;20431;-41